Time,TemperatureF,DewpointF,PressureIn,WindDirection,WindDirectionDegrees,WindSpeedMPH,WindSpeedGustMPH,Humidity,HourlyPrecipIn,Conditions,Clouds,dailyrainin,SoftwareType,DateUTC
2013-09-30 00:00:00,57.8,55.5,30.03,ENE,65,0.0,1.0,92,0.00,,,0.00,VWS V14.01,2013-09-30 04:00:00,
2013-09-30 00:01:00,57.9,55.6,30.03,ENE,65,0.0,1.0,92,0.00,,,0.00,VWS V14.01,2013-09-30 04:01:00,
2013-09-30 00:06:00,57.7,55.7,30.03,ENE,65,0.0,1.0,93,0.00,,,0.00,VWS V14.01,2013-09-30 04:06:00,
2013-09-30 00:11:00,57.5,55.5,30.03,ENE,65,0.0,2.0,93,0.00,,,0.00,VWS V14.01,2013-09-30 04:11:00,
2013-09-30 00:16:00,57.4,55.4,30.03,ENE,65,1.0,2.0,93,0.00,,,0.00,VWS V14.01,2013-09-30 04:16:00,
2013-09-30 00:21:00,57.4,55.4,30.03,ENE,65,0.0,2.0,93,0.00,,,0.00,VWS V14.01,2013-09-30 04:21:00,
2013-09-30 00:26:00,57.4,55.7,30.02,ENE,65,0.0,2.0,94,0.00,,,0.00,VWS V14.01,2013-09-30 04:26:00,
2013-09-30 00:30:00,57.4,55.7,30.02,ENE,65,1.0,2.0,94,0.00,,,0.00,VWS V14.01,2013-09-30 04:30:00,
2013-09-30 00:31:00,57.4,55.7,30.02,ENE,65,0.0,2.0,94,0.00,,,0.00,VWS V14.01,2013-09-30 04:31:00,
2013-09-30 00:36:00,57.5,55.8,30.02,NNE,30,0.0,3.0,94,0.00,,,0.00,VWS V14.01,2013-09-30 04:36:00,
2013-09-30 00:41:00,57.6,55.9,30.02,ENE,71,0.0,4.0,94,0.00,,,0.00,VWS V14.01,2013-09-30 04:41:00,
2013-09-30 00:46:00,57.7,56.0,30.02,NE,35,4.0,4.0,94,0.00,,,0.00,VWS V14.01,2013-09-30 04:46:00,
2013-09-30 00:51:00,57.7,56.3,30.01,NNE,26,0.0,4.0,95,0.00,,,0.00,VWS V14.01,2013-09-30 04:51:00,
2013-09-30 00:56:00,57.7,56.3,30.01,NNE,26,0.0,4.0,95,0.00,,,0.00,VWS V14.01,2013-09-30 04:56:00,
2013-09-30 01:00:00,57.6,56.2,30.02,NNE,26,1.0,4.0,95,0.00,,,0.00,VWS V14.01,2013-09-30 05:00:00,
2013-09-30 01:01:00,57.6,56.2,30.02,NNE,26,1.0,4.0,95,0.00,,,0.00,VWS V14.01,2013-09-30 05:01:00,
2013-09-30 01:06:00,57.6,56.2,30.02,NNE,26,0.0,2.0,95,0.00,,,0.00,VWS V14.01,2013-09-30 05:06:00,
2013-09-30 01:11:00,57.4,55.7,30.02,North,355,0.0,3.0,94,0.00,,,0.00,VWS V14.01,2013-09-30 05:11:00,
2013-09-30 01:16:00,57.2,55.8,30.02,North,355,2.0,3.0,95,0.00,,,0.00,VWS V14.01,2013-09-30 05:16:00,
2013-09-30 01:21:00,57.0,55.6,30.02,NNW,346,1.0,3.0,95,0.00,,,0.00,VWS V14.01,2013-09-30 05:21:00,
2013-09-30 01:26:00,56.9,55.5,30.02,NNW,346,1.0,3.0,95,0.00,,,0.00,VWS V14.01,2013-09-30 05:26:00,
2013-09-30 01:30:00,56.7,55.3,30.02,NNW,346,1.0,3.0,95,0.00,,,0.00,VWS V14.01,2013-09-30 05:30:00,
2013-09-30 01:31:00,56.7,55.3,30.02,NNW,346,0.0,3.0,95,0.00,,,0.00,VWS V14.01,2013-09-30 05:31:00,
2013-09-30 01:36:00,56.6,55.2,30.02,NNW,346,1.0,2.0,95,0.00,,,0.00,VWS V14.01,2013-09-30 05:36:00,
2013-09-30 01:41:00,56.6,55.2,30.02,NNW,346,0.0,2.0,95,0.00,,,0.00,VWS V14.01,2013-09-30 05:41:00,
2013-09-30 01:46:00,56.5,55.1,30.02,NNW,346,0.0,3.0,95,0.00,,,0.00,VWS V14.01,2013-09-30 05:46:00,
2013-09-30 01:51:00,56.5,55.1,30.02,NNW,346,0.0,3.0,95,0.00,,,0.00,VWS V14.01,2013-09-30 05:51:00,
2013-09-30 01:56:00,56.5,55.4,30.02,NNW,344,2.0,3.0,96,0.00,,,0.00,VWS V14.01,2013-09-30 05:56:00,
2013-09-30 02:01:00,56.5,55.4,30.02,NW,315,1.0,3.0,96,0.00,,,0.00,VWS V14.01,2013-09-30 06:01:00,
2013-09-30 02:06:00,56.5,55.1,30.02,North,355,0.0,3.0,95,0.00,,,0.00,VWS V14.01,2013-09-30 06:06:00,
2013-09-30 02:11:00,56.5,55.4,30.02,North,355,0.0,3.0,96,0.00,,,0.00,VWS V14.01,2013-09-30 06:11:00,
2013-09-30 02:16:00,56.6,55.5,30.02,North,349,0.0,3.0,96,0.00,,,0.00,VWS V14.01,2013-09-30 06:16:00,
2013-09-30 02:21:00,56.7,55.6,30.01,North,349,1.0,3.0,96,0.00,,,0.00,VWS V14.01,2013-09-30 06:21:00,
2013-09-30 02:26:00,56.7,55.6,30.01,North,355,0.0,3.0,96,0.00,,,0.00,VWS V14.01,2013-09-30 06:26:00,
2013-09-30 02:30:00,56.8,55.7,30.01,NNE,13,1.0,5.0,96,0.00,,,0.00,VWS V14.01,2013-09-30 06:30:00,
2013-09-30 02:31:00,56.8,55.7,30.01,NNE,12,2.0,5.0,96,0.00,,,0.00,VWS V14.01,2013-09-30 06:31:00,
2013-09-30 02:36:00,56.8,55.7,30.01,North,5,1.0,5.0,96,0.00,,,0.00,VWS V14.01,2013-09-30 06:36:00,
2013-09-30 02:41:00,56.9,55.8,30.01,North,5,1.0,5.0,96,0.00,,,0.00,VWS V14.01,2013-09-30 06:41:00,
2013-09-30 02:46:00,56.9,55.8,30.01,North,5,1.0,5.0,96,0.00,,,0.00,VWS V14.01,2013-09-30 06:46:00,
2013-09-30 02:51:00,56.9,55.8,30.01,NNW,341,3.0,5.0,96,0.00,,,0.00,VWS V14.01,2013-09-30 06:51:00,
2013-09-30 02:56:00,57.0,55.9,30.01,NNE,28,0.0,5.0,96,0.00,,,0.00,VWS V14.01,2013-09-30 06:56:00,
2013-09-30 03:00:00,57.1,56.0,30.01,NNE,26,0.0,5.0,96,0.00,,,0.00,VWS V14.01,2013-09-30 07:00:00,
2013-09-30 03:01:00,57.1,56.0,30.01,NNE,26,2.0,5.0,96,0.00,,,0.00,VWS V14.01,2013-09-30 07:01:00,
2013-09-30 03:06:00,57.1,56.0,30.01,NNE,26,0.0,1.0,96,0.00,,,0.00,VWS V14.01,2013-09-30 07:06:00,
2013-09-30 03:11:00,57.2,56.1,30.02,West,275,2.0,3.0,96,0.00,,,0.00,VWS V14.01,2013-09-30 07:11:00,
2013-09-30 03:16:00,57.3,56.2,30.02,West,275,0.0,3.0,96,0.00,,,0.00,VWS V14.01,2013-09-30 07:16:00,
2013-09-30 03:21:00,57.3,56.2,30.02,West,262,0.0,4.0,96,0.00,,,0.00,VWS V14.01,2013-09-30 07:21:00,
2013-09-30 03:26:00,57.2,56.1,30.01,West,262,0.0,4.0,96,0.00,,,0.00,VWS V14.01,2013-09-30 07:26:00,
2013-09-30 03:30:00,57.2,56.1,30.01,West,262,1.0,4.0,96,0.00,,,0.00,VWS V14.01,2013-09-30 07:30:00,
2013-09-30 03:31:00,57.2,56.1,30.01,West,262,1.0,4.0,96,0.00,,,0.00,VWS V14.01,2013-09-30 07:31:00,
2013-09-30 03:36:00,57.2,56.1,30.01,West,262,0.0,2.0,96,0.00,,,0.00,VWS V14.01,2013-09-30 07:36:00,
2013-09-30 03:41:00,57.3,56.2,30.01,West,262,0.0,2.0,96,0.00,,,0.00,VWS V14.01,2013-09-30 07:41:00,
2013-09-30 03:46:00,57.3,56.2,30.01,NW,306,1.0,2.0,96,0.00,,,0.00,VWS V14.01,2013-09-30 07:46:00,
2013-09-30 03:51:00,57.4,56.3,30.01,NNW,327,1.0,2.0,96,0.00,,,0.00,VWS V14.01,2013-09-30 07:51:00,
2013-09-30 03:56:00,57.4,56.3,30.01,North,5,0.0,4.0,96,0.00,,,0.00,VWS V14.01,2013-09-30 07:56:00,
2013-09-30 04:00:00,57.5,56.4,30.01,North,5,0.0,4.0,96,0.00,,,0.00,VWS V14.01,2013-09-30 08:00:00,
2013-09-30 04:01:00,57.5,56.4,30.01,North,5,0.0,4.0,96,0.00,,,0.00,VWS V14.01,2013-09-30 08:01:00,
2013-09-30 04:06:00,57.5,56.4,30.01,North,5,0.0,1.0,96,0.00,,,0.00,VWS V14.01,2013-09-30 08:06:00,
2013-09-30 04:11:00,57.6,56.5,30.01,NNE,18,0.0,3.0,96,0.00,,,0.00,VWS V14.01,2013-09-30 08:11:00,
2013-09-30 04:16:00,57.6,56.5,30.01,NNW,331,1.0,3.0,96,0.00,,,0.00,VWS V14.01,2013-09-30 08:16:00,
2013-09-30 04:21:00,57.7,56.6,30.01,NW,315,1.0,5.0,96,0.00,,,0.00,VWS V14.01,2013-09-30 08:21:00,
2013-09-30 04:26:00,57.7,56.6,30.01,NW,315,0.0,5.0,96,0.00,,,0.00,VWS V14.01,2013-09-30 08:26:00,
2013-09-30 04:30:00,57.8,56.7,30.01,NNE,13,2.0,5.0,96,0.00,,,0.00,VWS V14.01,2013-09-30 08:30:00,
2013-09-30 04:31:00,57.8,56.7,30.01,NNE,13,0.0,5.0,96,0.00,,,0.00,VWS V14.01,2013-09-30 08:31:00,
2013-09-30 04:36:00,57.8,56.7,30.01,NE,34,1.0,4.0,96,0.00,,,0.00,VWS V14.01,2013-09-30 08:36:00,
2013-09-30 04:41:00,57.8,56.7,30.01,NE,46,1.0,4.0,96,0.00,,,0.00,VWS V14.01,2013-09-30 08:41:00,
2013-09-30 04:46:00,57.8,56.7,30.00,NNE,17,1.0,4.0,96,0.00,,,0.00,VWS V14.01,2013-09-30 08:46:00,
2013-09-30 04:51:00,57.8,56.7,30.00,NNW,344,3.0,4.0,96,0.00,,,0.00,VWS V14.01,2013-09-30 08:51:00,
2013-09-30 04:56:00,57.7,56.6,30.01,NNE,19,3.0,4.0,96,0.00,,,0.00,VWS V14.01,2013-09-30 08:56:00,
2013-09-30 05:00:00,57.8,56.7,30.01,North,9,1.0,4.0,96,0.00,,,0.00,VWS V14.01,2013-09-30 09:00:00,
2013-09-30 05:01:00,57.8,56.4,30.01,North,9,1.0,4.0,95,0.00,,,0.00,VWS V14.01,2013-09-30 09:01:00,
2013-09-30 05:06:00,57.8,56.4,30.00,North,5,1.0,4.0,95,0.00,,,0.00,VWS V14.01,2013-09-30 09:06:00,
2013-09-30 05:11:00,57.7,56.3,30.00,North,5,0.0,4.0,95,0.00,,,0.00,VWS V14.01,2013-09-30 09:11:00,
2013-09-30 05:16:00,57.7,56.3,30.00,NE,47,2.0,5.0,95,0.00,,,0.00,VWS V14.01,2013-09-30 09:16:00,
2013-09-30 05:21:00,57.7,56.3,30.00,North,355,0.0,6.0,95,0.00,,,0.00,VWS V14.01,2013-09-30 09:21:00,
2013-09-30 05:26:00,57.7,56.3,30.00,NNE,13,2.0,6.0,95,0.00,,,0.00,VWS V14.01,2013-09-30 09:26:00,
2013-09-30 05:30:00,57.7,56.3,30.00,North,5,2.0,6.0,95,0.00,,,0.00,VWS V14.01,2013-09-30 09:30:00,
2013-09-30 05:31:00,57.7,56.3,30.00,NNE,13,2.0,6.0,95,0.00,,,0.00,VWS V14.01,2013-09-30 09:31:00,
2013-09-30 05:36:00,57.7,56.3,30.01,NNE,22,1.0,3.0,95,0.00,,,0.00,VWS V14.01,2013-09-30 09:36:00,
2013-09-30 05:41:00,57.7,56.3,30.01,North,5,0.0,5.0,95,0.00,,,0.00,VWS V14.01,2013-09-30 09:41:00,
2013-09-30 05:46:00,57.7,56.3,30.01,NNW,345,2.0,5.0,95,0.00,,,0.00,VWS V14.01,2013-09-30 09:46:00,
2013-09-30 05:51:00,57.7,56.3,30.00,NNW,345,0.0,5.0,95,0.00,,,0.00,VWS V14.01,2013-09-30 09:51:00,
2013-09-30 05:56:00,57.7,56.3,30.00,NE,47,2.0,5.0,95,0.00,,,0.00,VWS V14.01,2013-09-30 09:56:00,
2013-09-30 06:00:00,57.7,56.3,30.01,North,360,3.0,5.0,95,0.00,,,0.00,VWS V14.01,2013-09-30 10:00:00,
2013-09-30 06:01:00,57.7,56.3,30.01,North,355,0.0,5.0,95,0.00,,,0.00,VWS V14.01,2013-09-30 10:01:00,
2013-09-30 06:06:00,57.7,56.3,30.01,NNE,12,1.0,3.0,95,0.00,,,0.00,VWS V14.01,2013-09-30 10:06:00,
2013-09-30 06:11:00,57.7,56.3,30.00,NNE,27,0.0,4.0,95,0.00,,,0.00,VWS V14.01,2013-09-30 10:11:00,
2013-09-30 06:16:00,57.7,56.3,30.00,NNE,30,2.0,6.0,95,0.00,,,0.00,VWS V14.01,2013-09-30 10:16:00,
2013-09-30 06:21:00,57.6,56.2,30.01,NNE,28,0.0,6.0,95,0.00,,,0.00,VWS V14.01,2013-09-30 10:21:00,
2013-09-30 06:26:00,57.6,56.2,30.01,North,9,2.0,6.0,95,0.00,,,0.00,VWS V14.01,2013-09-30 10:26:00,
2013-09-30 06:30:00,57.7,56.3,30.01,North,9,0.0,6.0,95,0.00,,,0.00,VWS V14.01,2013-09-30 10:30:00,
2013-09-30 06:31:00,57.7,56.3,30.01,North,9,0.0,6.0,95,0.00,,,0.00,VWS V14.01,2013-09-30 10:31:00,
2013-09-30 06:36:00,57.7,56.3,30.01,North,9,0.0,3.0,95,0.00,,,0.00,VWS V14.01,2013-09-30 10:36:00,
2013-09-30 06:41:00,57.8,56.4,30.01,NE,50,1.0,4.0,95,0.00,,,0.00,VWS V14.01,2013-09-30 10:41:00,
2013-09-30 06:46:00,57.8,56.1,30.01,NE,49,2.0,4.0,94,0.00,,,0.00,VWS V14.01,2013-09-30 10:46:00,
2013-09-30 06:51:00,57.9,56.2,30.01,NE,47,2.0,4.0,94,0.00,,,0.00,VWS V14.01,2013-09-30 10:51:00,
2013-09-30 06:56:00,57.8,56.1,30.02,NNE,20,2.0,4.0,94,0.00,,,0.00,VWS V14.01,2013-09-30 10:56:00,
2013-09-30 07:00:00,57.8,56.1,30.02,North,9,1.0,4.0,94,0.00,,,0.00,VWS V14.01,2013-09-30 11:00:00,
2013-09-30 07:01:00,57.8,56.1,30.02,NNE,19,3.0,4.0,94,0.00,,,0.00,VWS V14.01,2013-09-30 11:01:00,
2013-09-30 07:06:00,58.0,56.3,30.01,NE,38,2.0,4.0,94,0.00,,,0.00,VWS V14.01,2013-09-30 11:06:00,
2013-09-30 07:11:00,58.0,56.3,30.01,NNE,21,2.0,5.0,94,0.00,,,0.00,VWS V14.01,2013-09-30 11:11:00,
2013-09-30 07:16:00,58.1,56.4,30.01,NNE,12,1.0,5.0,94,0.00,,,0.00,VWS V14.01,2013-09-30 11:16:00,
2013-09-30 07:21:00,58.1,56.4,30.01,NE,55,2.0,5.0,94,0.00,,,0.00,VWS V14.01,2013-09-30 11:21:00,
2013-09-30 07:26:00,58.2,56.5,30.01,NNE,13,0.0,5.0,94,0.00,,,0.00,VWS V14.01,2013-09-30 11:26:00,
2013-09-30 07:30:00,58.3,56.3,30.01,NNE,15,2.0,5.0,93,0.00,,,0.00,VWS V14.01,2013-09-30 11:30:00,
2013-09-30 07:31:00,58.2,56.2,30.01,NNE,23,1.0,5.0,93,0.00,,,0.00,VWS V14.01,2013-09-30 11:31:00,
2013-09-30 07:36:00,58.4,56.4,30.01,NNE,16,0.0,3.0,93,0.00,,,0.00,VWS V14.01,2013-09-30 11:36:00,
2013-09-30 07:41:00,58.7,56.7,30.02,NE,40,3.0,6.0,93,0.00,,,0.00,VWS V14.01,2013-09-30 11:41:00,
2013-09-30 07:46:00,59.0,57.0,30.02,NNE,22,4.0,6.0,93,0.00,,,0.00,VWS V14.01,2013-09-30 11:46:00,
2013-09-30 07:51:00,59.3,57.0,30.01,NNW,347,3.0,6.0,92,0.00,,,0.00,VWS V14.01,2013-09-30 11:51:00,
2013-09-30 07:56:00,59.6,57.3,30.01,ENE,65,0.0,7.0,92,0.00,,,0.00,VWS V14.01,2013-09-30 11:56:00,
2013-09-30 08:00:00,60.3,57.7,30.01,ESE,119,2.0,7.0,91,0.00,,,0.00,VWS V14.01,2013-09-30 12:00:00,
2013-09-30 08:01:00,60.1,57.5,30.01,NNE,33,2.0,7.0,91,0.00,,,0.00,VWS V14.01,2013-09-30 12:01:00,
2013-09-30 08:06:00,60.7,57.8,30.01,West,267,1.0,7.0,90,0.00,,,0.00,VWS V14.01,2013-09-30 12:06:00,
2013-09-30 08:11:00,61.1,57.5,30.01,ENE,69,0.0,8.0,88,0.00,,,0.00,VWS V14.01,2013-09-30 12:11:00,
2013-09-30 08:16:00,61.3,57.4,30.01,ENE,74,3.0,8.0,87,0.00,,,0.00,VWS V14.01,2013-09-30 12:16:00,
2013-09-30 08:21:00,61.4,57.2,30.01,NE,40,2.0,10.0,86,0.00,,,0.00,VWS V14.01,2013-09-30 12:21:00,
2013-09-30 08:26:00,61.5,57.3,30.00,ENE,71,3.0,10.0,86,0.00,,,0.00,VWS V14.01,2013-09-30 12:26:00,
2013-09-30 08:30:00,61.6,57.4,30.00,NNW,347,2.0,10.0,86,0.00,,,0.00,VWS V14.01,2013-09-30 12:30:00,
2013-09-30 08:31:00,61.6,57.0,30.00,East,80,2.0,10.0,85,0.00,,,0.00,VWS V14.01,2013-09-30 12:31:00,
2013-09-30 08:35:00,61.9,57.7,30.00,NNE,15,4.0,4.0,86,0.00,,,0.00,VWS V14.01,2013-09-30 12:35:00,
2013-09-30 08:40:00,62.0,57.5,30.00,North,355,1.0,5.0,85,0.00,,,0.00,VWS V14.01,2013-09-30 12:40:00,
2013-09-30 08:45:00,62.2,57.6,30.00,NE,49,2.0,7.0,85,0.00,,,0.00,VWS V14.01,2013-09-30 12:45:00,
2013-09-30 08:50:00,62.6,58.0,30.00,NNE,33,1.0,7.0,85,0.00,,,0.00,VWS V14.01,2013-09-30 12:50:00,
2013-09-30 08:55:00,62.6,58.0,30.00,NNE,28,3.0,7.0,85,0.00,,,0.00,VWS V14.01,2013-09-30 12:55:00,
2013-09-30 09:00:00,63.2,58.3,30.00,East,83,1.0,7.0,84,0.00,,,0.00,VWS V14.01,2013-09-30 13:00:00,
2013-09-30 09:05:00,63.7,58.1,30.00,ENE,74,1.0,6.0,82,0.00,,,0.00,VWS V14.01,2013-09-30 13:05:00,
2013-09-30 09:10:00,63.9,57.6,30.00,NE,44,2.0,8.0,80,0.00,,,0.00,VWS V14.01,2013-09-30 13:10:00,
2013-09-30 09:15:00,63.7,57.4,30.00,NNE,17,2.0,8.0,80,0.00,,,0.00,VWS V14.01,2013-09-30 13:15:00,
2013-09-30 09:20:00,63.8,57.5,30.00,NNE,13,2.0,8.0,80,0.00,,,0.00,VWS V14.01,2013-09-30 13:20:00,
2013-09-30 09:25:00,63.9,57.3,30.00,NNW,337,2.0,8.0,79,0.00,,,0.00,VWS V14.01,2013-09-30 13:25:00,
2013-09-30 09:30:00,63.8,57.2,30.00,East,85,6.0,8.0,79,0.00,,,0.00,VWS V14.01,2013-09-30 13:30:00,
2013-09-30 09:35:00,63.9,57.6,29.99,East,97,1.0,4.0,80,0.00,,,0.00,VWS V14.01,2013-09-30 13:35:00,
2013-09-30 09:40:00,64.3,57.7,29.99,NNE,25,3.0,6.0,79,0.00,,,0.00,VWS V14.01,2013-09-30 13:40:00,
2013-09-30 09:45:00,64.9,57.9,29.99,NNE,22,3.0,7.0,78,0.00,,,0.00,VWS V14.01,2013-09-30 13:45:00,
2013-09-30 09:51:00,64.3,57.7,29.99,NE,52,3.0,8.0,79,0.00,,,0.00,VWS V14.01,2013-09-30 13:51:00,
2013-09-30 09:56:00,64.0,57.4,29.99,NE,36,4.0,8.0,79,0.00,,,0.00,VWS V14.01,2013-09-30 13:56:00,
2013-09-30 10:00:00,63.7,57.1,29.99,North,360,2.0,8.0,79,0.00,,,0.00,VWS V14.01,2013-09-30 14:00:00,
2013-09-30 10:01:00,63.8,57.2,29.99,NE,34,1.0,8.0,79,0.00,,,0.00,VWS V14.01,2013-09-30 14:01:00,
2013-09-30 10:06:00,63.8,57.5,29.99,ENE,67,2.0,5.0,80,0.00,,,0.00,VWS V14.01,2013-09-30 14:06:00,
2013-09-30 10:11:00,64.1,57.5,30.00,NE,49,3.0,6.0,79,0.00,,,0.00,VWS V14.01,2013-09-30 14:11:00,
2013-09-30 10:16:00,64.7,57.7,29.99,SE,142,1.0,6.0,78,0.00,,,0.00,VWS V14.01,2013-09-30 14:16:00,
2013-09-30 10:21:00,65.4,58.0,29.99,NNW,342,1.0,9.0,77,0.00,,,0.00,VWS V14.01,2013-09-30 14:21:00,
2013-09-30 10:26:00,65.8,57.7,29.99,ENE,57,3.0,12.0,75,0.00,,,0.00,VWS V14.01,2013-09-30 14:26:00,
2013-09-30 10:31:00,65.5,57.7,29.99,NE,54,0.0,12.0,76,0.00,,,0.00,VWS V14.01,2013-09-30 14:31:00,
2013-09-30 10:36:00,65.6,57.8,29.99,ENE,71,3.0,8.0,76,0.00,,,0.00,VWS V14.01,2013-09-30 14:36:00,
2013-09-30 10:41:00,66.0,57.9,29.99,North,5,0.0,8.0,75,0.00,,,0.00,VWS V14.01,2013-09-30 14:41:00,
2013-09-30 10:46:00,66.6,58.4,29.99,NNW,342,1.0,8.0,75,0.00,,,0.00,VWS V14.01,2013-09-30 14:46:00,
2013-09-30 10:51:00,66.7,57.4,29.98,North,360,2.0,9.0,72,0.00,,,0.00,VWS V14.01,2013-09-30 14:51:00,
2013-09-30 10:56:00,66.2,57.7,29.98,NNE,15,2.0,9.0,74,0.00,,,0.00,VWS V14.01,2013-09-30 14:56:00,
2013-09-30 11:00:00,65.7,56.8,29.98,NE,56,3.0,9.0,73,0.00,,,0.00,VWS V14.01,2013-09-30 15:00:00,
2013-09-30 11:01:00,65.9,57.0,29.98,NNE,13,2.0,9.0,73,0.00,,,0.00,VWS V14.01,2013-09-30 15:01:00,
2013-09-30 11:06:00,65.7,57.6,29.98,East,90,0.0,6.0,75,0.00,,,0.00,VWS V14.01,2013-09-30 15:06:00,
2013-09-30 11:11:00,66.6,57.3,29.98,NNE,28,5.0,6.0,72,0.00,,,0.00,VWS V14.01,2013-09-30 15:11:00,
2013-09-30 11:16:00,65.4,56.5,29.98,East,92,5.0,7.0,73,0.00,,,0.00,VWS V14.01,2013-09-30 15:16:00,
2013-09-30 11:20:00,64.7,56.6,29.98,ENE,57,1.0,11.0,75,0.00,,,0.00,VWS V14.01,2013-09-30 15:20:00,
2013-09-30 11:25:00,64.9,56.8,29.98,ESE,104,7.0,11.0,75,0.00,,,0.00,VWS V14.01,2013-09-30 15:25:00,
2013-09-30 11:30:00,65.1,57.0,29.97,North,355,4.0,11.0,75,0.00,,,0.00,VWS V14.01,2013-09-30 15:30:00,
2013-09-30 11:35:00,65.8,57.3,29.97,North,5,6.0,8.0,74,0.00,,,0.00,VWS V14.01,2013-09-30 15:35:00,
2013-09-30 11:40:00,65.3,56.8,29.97,SE,130,2.0,9.0,74,0.00,,,0.00,VWS V14.01,2013-09-30 15:40:00,
2013-09-30 11:45:00,65.5,57.4,29.97,NE,40,1.0,9.0,75,0.00,,,0.00,VWS V14.01,2013-09-30 15:45:00,
2013-09-30 11:50:00,66.5,57.6,29.97,East,96,0.0,9.0,73,0.00,,,0.00,VWS V14.01,2013-09-30 15:50:00,
2013-09-30 11:55:00,66.3,57.0,29.97,ENE,73,1.0,9.0,72,0.00,,,0.00,VWS V14.01,2013-09-30 15:55:00,
2013-09-30 12:00:00,66.7,57.4,29.97,ENE,61,1.0,9.0,72,0.00,,,0.00,VWS V14.01,2013-09-30 16:00:00,
2013-09-30 12:05:00,67.0,57.3,29.97,NNW,338,2.0,5.0,71,0.00,,,0.00,VWS V14.01,2013-09-30 16:05:00,
2013-09-30 12:10:00,66.7,57.4,29.97,NE,41,2.0,7.0,72,0.00,,,0.00,VWS V14.01,2013-09-30 16:10:00,
2013-09-30 12:15:00,66.0,56.3,29.97,NNE,15,2.0,7.0,71,0.00,,,0.00,VWS V14.01,2013-09-30 16:15:00,
2013-09-30 12:20:00,65.7,56.4,29.97,NNE,22,0.0,7.0,72,0.00,,,0.00,VWS V14.01,2013-09-30 16:20:00,
2013-09-30 12:25:00,66.4,57.5,29.97,NW,325,7.0,7.0,73,0.00,,,0.00,VWS V14.01,2013-09-30 16:25:00,
2013-09-30 12:30:00,66.6,56.9,29.96,NNW,348,7.0,7.0,71,0.00,,,0.00,VWS V14.01,2013-09-30 16:30:00,
2013-09-30 12:35:00,65.9,56.2,29.96,NNE,19,1.0,6.0,71,0.00,,,0.00,VWS V14.01,2013-09-30 16:35:00,
2013-09-30 12:40:00,65.2,56.7,29.96,NNE,26,1.0,6.0,74,0.00,,,0.00,VWS V14.01,2013-09-30 16:40:00,
2013-09-30 12:45:00,66.2,56.9,29.96,East,84,2.0,6.0,72,0.00,,,0.00,VWS V14.01,2013-09-30 16:45:00,
2013-09-30 12:50:00,67.0,56.9,29.96,North,11,3.0,6.0,70,0.00,,,0.00,VWS V14.01,2013-09-30 16:50:00,
2013-09-30 12:55:00,66.6,56.9,29.96,NNW,336,2.0,8.0,71,0.00,,,0.00,VWS V14.01,2013-09-30 16:55:00,
2013-09-30 13:00:00,65.8,56.5,29.96,ESE,103,4.0,8.0,72,0.00,,,0.00,VWS V14.01,2013-09-30 17:00:00,
2013-09-30 13:05:00,64.8,56.3,29.96,NW,308,5.0,7.0,74,0.00,,,0.00,VWS V14.01,2013-09-30 17:05:00,
2013-09-30 13:10:00,65.1,57.4,29.95,North,355,3.0,7.0,76,0.00,,,0.00,VWS V14.01,2013-09-30 17:10:00,
2013-09-30 13:15:00,65.8,57.3,29.96,NE,38,2.0,9.0,74,0.00,,,0.00,VWS V14.01,2013-09-30 17:15:00,
2013-09-30 13:20:00,66.7,57.8,29.95,North,11,7.0,9.0,73,0.00,,,0.00,VWS V14.01,2013-09-30 17:20:00,
2013-09-30 13:25:00,66.9,57.2,29.95,NW,308,5.0,9.0,71,0.00,,,0.00,VWS V14.01,2013-09-30 17:25:00,
2013-09-30 13:30:00,66.5,56.0,29.96,NNE,18,7.0,9.0,69,0.00,,,0.00,VWS V14.01,2013-09-30 17:30:00,
2013-09-30 13:35:00,66.3,57.4,29.95,NE,55,3.0,9.0,73,0.00,,,0.00,VWS V14.01,2013-09-30 17:35:00,
2013-09-30 13:40:00,66.9,57.2,29.95,East,82,3.0,9.0,71,0.00,,,0.00,VWS V14.01,2013-09-30 17:40:00,
2013-09-30 13:45:00,67.1,56.6,29.95,NNE,30,0.0,9.0,69,0.00,,,0.00,VWS V14.01,2013-09-30 17:45:00,
2013-09-30 13:50:00,67.8,57.3,29.95,East,86,1.0,9.0,69,0.00,,,0.00,VWS V14.01,2013-09-30 17:50:00,
2013-09-30 13:55:00,67.9,57.4,29.95,NNE,21,2.0,9.0,69,0.00,,,0.00,VWS V14.01,2013-09-30 17:55:00,
2013-09-30 14:00:00,68.0,57.1,29.95,NNE,25,2.0,9.0,68,0.00,,,0.00,VWS V14.01,2013-09-30 18:00:00,
2013-09-30 14:05:00,67.2,56.3,29.94,NNW,327,1.0,5.0,68,0.00,,,0.00,VWS V14.01,2013-09-30 18:05:00,
2013-09-30 14:10:00,67.1,56.2,29.95,NNE,19,2.0,6.0,68,0.00,,,0.00,VWS V14.01,2013-09-30 18:10:00,
2013-09-30 14:15:00,67.0,56.1,29.94,East,89,1.0,8.0,68,0.00,,,0.00,VWS V14.01,2013-09-30 18:15:00,
2013-09-30 14:20:00,67.7,56.8,29.94,North,350,5.0,8.0,68,0.00,,,0.00,VWS V14.01,2013-09-30 18:20:00,
2013-09-30 14:25:00,68.6,57.2,29.94,ENE,64,4.0,8.0,67,0.00,,,0.00,VWS V14.01,2013-09-30 18:25:00,
2013-09-30 14:30:00,68.2,56.4,29.94,NNE,14,2.0,8.0,66,0.00,,,0.00,VWS V14.01,2013-09-30 18:30:00,
2013-09-30 14:35:00,67.2,56.3,29.94,NE,44,1.0,7.0,68,0.00,,,0.00,VWS V14.01,2013-09-30 18:35:00,
2013-09-30 14:40:00,67.0,56.5,29.94,NE,38,0.0,7.0,69,0.00,,,0.00,VWS V14.01,2013-09-30 18:40:00,
2013-09-30 14:45:00,67.1,57.0,29.93,NNE,31,5.0,7.0,70,0.00,,,0.00,VWS V14.01,2013-09-30 18:45:00,
2013-09-30 14:50:00,67.1,56.2,29.93,North,355,2.0,7.0,68,0.00,,,0.00,VWS V14.01,2013-09-30 18:50:00,
2013-09-30 14:55:00,66.7,56.2,29.93,NNW,345,1.0,8.0,69,0.00,,,0.00,VWS V14.01,2013-09-30 18:55:00,
2013-09-30 15:00:00,66.9,56.0,29.93,NNW,342,5.0,8.0,68,0.00,,,0.00,VWS V14.01,2013-09-30 19:00:00,
2013-09-30 15:05:00,67.0,56.1,29.93,NW,309,3.0,6.0,68,0.00,,,0.00,VWS V14.01,2013-09-30 19:05:00,
2013-09-30 15:10:00,67.0,56.5,29.92,ENE,65,0.0,7.0,69,0.00,,,0.00,VWS V14.01,2013-09-30 19:10:00,
2013-09-30 15:15:00,67.0,56.1,29.92,NNE,33,2.0,7.0,68,0.00,,,0.00,VWS V14.01,2013-09-30 19:15:00,
2013-09-30 15:20:00,66.5,56.0,29.92,North,9,1.0,7.0,69,0.00,,,0.00,VWS V14.01,2013-09-30 19:20:00,
2013-09-30 15:25:00,66.8,56.3,29.92,SSE,163,0.0,7.0,69,0.00,,,0.00,VWS V14.01,2013-09-30 19:25:00,
2013-09-30 15:30:00,67.3,56.0,29.92,NNE,33,3.0,7.0,67,0.00,,,0.00,VWS V14.01,2013-09-30 19:30:00,
2013-09-30 15:35:00,67.2,56.3,29.92,NE,37,1.0,4.0,68,0.00,,,0.00,VWS V14.01,2013-09-30 19:35:00,
2013-09-30 15:40:00,67.0,56.5,29.92,NE,42,0.0,8.0,69,0.00,,,0.00,VWS V14.01,2013-09-30 19:40:00,
2013-09-30 15:45:00,66.5,55.6,29.92,NNE,30,0.0,8.0,68,0.00,,,0.00,VWS V14.01,2013-09-30 19:45:00,
2013-09-30 15:50:00,66.5,56.0,29.92,NNE,30,1.0,8.0,69,0.00,,,0.00,VWS V14.01,2013-09-30 19:50:00,
2013-09-30 15:55:00,66.5,56.4,29.92,North,11,2.0,8.0,70,0.00,,,0.00,VWS V14.01,2013-09-30 19:55:00,
2013-09-30 16:00:00,66.3,56.2,29.91,NNE,21,4.0,8.0,70,0.00,,,0.00,VWS V14.01,2013-09-30 20:00:00,
2013-09-30 16:05:00,65.8,56.5,29.91,NE,37,1.0,7.0,72,0.00,,,0.00,VWS V14.01,2013-09-30 20:05:00,
2013-09-30 16:10:00,65.5,56.2,29.91,NNW,336,6.0,7.0,72,0.00,,,0.00,VWS V14.01,2013-09-30 20:10:00,
2013-09-30 16:15:00,65.2,56.3,29.91,NE,42,4.0,7.0,73,0.00,,,0.00,VWS V14.01,2013-09-30 20:15:00,
2013-09-30 16:20:00,65.0,56.2,29.91,ENE,64,3.0,7.0,73,0.00,,,0.00,VWS V14.01,2013-09-30 20:20:00,
2013-09-30 16:25:00,64.4,55.9,29.91,NNW,344,1.0,7.0,74,0.00,,,0.00,VWS V14.01,2013-09-30 20:25:00,
2013-09-30 16:30:00,64.4,55.9,29.91,NNE,23,2.0,7.0,74,0.00,,,0.00,VWS V14.01,2013-09-30 20:30:00,
2013-09-30 16:35:00,64.2,55.8,29.92,NNW,331,4.0,5.0,74,0.00,,,0.00,VWS V14.01,2013-09-30 20:35:00,
2013-09-30 16:40:00,63.8,55.7,29.92,NNE,30,1.0,5.0,75,0.00,,,0.00,VWS V14.01,2013-09-30 20:40:00,
2013-09-30 16:45:00,63.5,55.4,29.91,NNE,15,3.0,5.0,75,0.00,,,0.00,VWS V14.01,2013-09-30 20:45:00,
2013-09-30 16:50:00,63.1,55.4,29.92,NNE,24,0.0,5.0,76,0.00,,,0.00,VWS V14.01,2013-09-30 20:50:00,
2013-09-30 16:55:00,63.0,55.3,29.92,ENE,64,0.0,5.0,76,0.00,,,0.00,VWS V14.01,2013-09-30 20:55:00,
2013-09-30 17:00:00,63.0,55.0,29.92,South,177,1.0,5.0,75,0.00,,,0.00,VWS V14.01,2013-09-30 21:00:00,
2013-09-30 17:05:00,62.8,55.1,29.92,NNE,30,2.0,3.0,76,0.00,,,0.00,VWS V14.01,2013-09-30 21:05:00,
2013-09-30 17:10:00,62.6,54.9,29.92,NE,35,0.0,6.0,76,0.00,,,0.00,VWS V14.01,2013-09-30 21:10:00,
2013-09-30 17:15:00,62.4,54.8,29.92,ENE,65,2.0,6.0,76,0.00,,,0.00,VWS V14.01,2013-09-30 21:15:00,
2013-09-30 17:20:00,62.3,55.0,29.92,NNE,25,0.0,6.0,77,0.00,,,0.00,VWS V14.01,2013-09-30 21:20:00,
2013-09-30 17:25:00,62.1,54.8,29.92,NNE,22,0.0,6.0,77,0.00,,,0.00,VWS V14.01,2013-09-30 21:25:00,
2013-09-30 17:30:00,62.0,55.1,29.92,NNE,19,0.0,6.0,78,0.00,,,0.00,VWS V14.01,2013-09-30 21:30:00,
2013-09-30 17:35:00,61.9,55.0,29.92,North,355,2.0,4.0,78,0.00,,,0.00,VWS V14.01,2013-09-30 21:35:00,
2013-09-30 17:40:00,61.7,55.1,29.92,NNE,26,1.0,4.0,79,0.00,,,0.00,VWS V14.01,2013-09-30 21:40:00,
2013-09-30 17:45:00,61.5,54.9,29.92,NNE,26,1.0,4.0,79,0.00,,,0.00,VWS V14.01,2013-09-30 21:45:00,
2013-09-30 17:50:00,61.1,54.9,29.92,NNE,19,0.0,6.0,80,0.00,,,0.00,VWS V14.01,2013-09-30 21:50:00,
2013-09-30 17:55:00,60.7,54.5,29.92,NNE,22,0.0,6.0,80,0.00,,,0.00,VWS V14.01,2013-09-30 21:55:00,
2013-09-30 18:00:00,60.5,54.7,29.92,NNE,27,1.0,6.0,81,0.00,,,0.00,VWS V14.01,2013-09-30 22:00:00,
2013-09-30 18:05:00,60.3,54.8,29.92,NNE,27,1.0,1.0,82,0.00,,,0.00,VWS V14.01,2013-09-30 22:05:00,
2013-09-30 18:10:00,60.0,54.5,29.92,NNE,27,0.0,2.0,82,0.00,,,0.00,VWS V14.01,2013-09-30 22:10:00,
2013-09-30 18:15:00,59.8,54.3,29.92,NE,35,1.0,3.0,82,0.00,,,0.00,VWS V14.01,2013-09-30 22:15:00,
2013-09-30 18:20:00,59.5,54.3,29.92,NE,34,0.0,3.0,83,0.00,,,0.00,VWS V14.01,2013-09-30 22:20:00,
2013-09-30 18:25:00,59.2,54.0,29.92,NE,34,0.0,3.0,83,0.00,,,0.00,VWS V14.01,2013-09-30 22:25:00,
2013-09-30 18:30:00,59.0,54.2,29.92,NE,34,0.0,3.0,84,0.00,,,0.00,VWS V14.01,2013-09-30 22:30:00,
2013-09-30 18:35:00,58.6,53.8,29.92,NE,34,0.0,1.0,84,0.00,,,0.00,VWS V14.01,2013-09-30 22:35:00,
2013-09-30 18:40:00,58.4,53.6,29.91,NE,34,0.0,1.0,84,0.00,,,0.00,VWS V14.01,2013-09-30 22:40:00,
2013-09-30 18:45:00,58.2,53.7,29.92,NE,34,0.0,1.0,85,0.00,,,0.00,VWS V14.01,2013-09-30 22:45:00,
2013-09-30 18:50:00,58.0,53.5,29.92,NE,34,0.0,1.0,85,0.00,,,0.00,VWS V14.01,2013-09-30 22:50:00,
2013-09-30 18:55:00,57.7,53.5,29.92,NE,34,1.0,2.0,86,0.00,,,0.00,VWS V14.01,2013-09-30 22:55:00,
2013-09-30 19:00:00,57.4,53.6,29.91,NE,34,0.0,2.0,87,0.00,,,0.00,VWS V14.01,2013-09-30 23:00:00,
2013-09-30 19:05:00,57.2,53.4,29.91,NE,35,0.0,1.0,87,0.00,,,0.00,VWS V14.01,2013-09-30 23:05:00,
2013-09-30 19:10:00,57.0,53.5,29.91,NE,35,0.0,1.0,88,0.00,,,0.00,VWS V14.01,2013-09-30 23:10:00,
2013-09-30 19:15:00,56.9,53.4,29.91,NE,35,0.0,1.0,88,0.00,,,0.00,VWS V14.01,2013-09-30 23:15:00,
2013-09-30 19:20:00,56.7,53.2,29.91,NE,35,0.0,1.0,88,0.00,,,0.00,VWS V14.01,2013-09-30 23:20:00,
2013-09-30 19:25:00,56.5,53.3,29.91,NE,35,0.0,1.0,89,0.00,,,0.00,VWS V14.01,2013-09-30 23:25:00,
2013-09-30 19:30:00,56.3,53.1,29.91,NE,35,0.0,1.0,89,0.00,,,0.00,VWS V14.01,2013-09-30 23:30:00,
2013-09-30 19:35:00,56.1,52.9,29.91,NE,35,0.0,0.0,89,0.00,,,0.00,VWS V14.01,2013-09-30 23:35:00,
2013-09-30 19:40:00,56.0,52.8,29.91,NE,35,0.0,0.0,89,0.00,,,0.00,VWS V14.01,2013-09-30 23:40:00,
2013-09-30 19:45:00,55.8,52.9,29.91,NE,35,0.0,0.0,90,0.00,,,0.00,VWS V14.01,2013-09-30 23:45:00,
2013-09-30 19:50:00,55.6,52.7,29.91,NE,35,0.0,0.0,90,0.00,,,0.00,VWS V14.01,2013-09-30 23:50:00,
2013-09-30 19:55:00,55.5,52.6,29.91,NE,35,0.0,0.0,90,0.00,,,0.00,VWS V14.01,2013-09-30 23:55:00,
2013-09-30 20:00:00,55.3,52.7,29.91,NE,35,0.0,0.0,91,0.00,,,0.00,VWS V14.01,2013-10-01 00:00:00,
2013-09-30 20:05:00,55.1,52.5,29.91,NE,35,0.0,0.0,91,0.00,,,0.00,VWS V14.01,2013-10-01 00:05:00,
2013-09-30 20:10:00,55.0,52.4,29.91,NE,35,0.0,0.0,91,0.00,,,0.00,VWS V14.01,2013-10-01 00:10:00,
2013-09-30 20:15:00,54.9,52.3,29.91,NE,35,0.0,0.0,91,0.00,,,0.00,VWS V14.01,2013-10-01 00:15:00,
2013-09-30 20:20:00,54.7,52.1,29.91,NE,35,0.0,0.0,91,0.00,,,0.00,VWS V14.01,2013-10-01 00:20:00,
2013-09-30 20:25:00,54.6,52.0,29.91,NE,35,0.0,0.0,91,0.00,,,0.00,VWS V14.01,2013-10-01 00:25:00,
2013-09-30 20:30:00,54.5,51.9,29.91,NE,35,0.0,0.0,91,0.00,,,0.00,VWS V14.01,2013-10-01 00:30:00,
2013-09-30 20:35:00,54.3,52.0,29.91,NE,35,0.0,0.0,92,0.00,,,0.00,VWS V14.01,2013-10-01 00:35:00,
2013-09-30 20:40:00,54.1,51.8,29.91,NE,35,0.0,0.0,92,0.00,,,0.00,VWS V14.01,2013-10-01 00:40:00,
2013-09-30 20:45:00,53.9,51.6,29.91,NE,35,0.0,0.0,92,0.00,,,0.00,VWS V14.01,2013-10-01 00:45:00,
2013-09-30 20:50:00,53.7,51.7,29.91,NE,35,0.0,0.0,93,0.00,,,0.00,VWS V14.01,2013-10-01 00:50:00,
2013-09-30 20:55:00,53.7,51.7,29.91,NE,35,0.0,0.0,93,0.00,,,0.00,VWS V14.01,2013-10-01 00:55:00,
2013-09-30 21:00:00,53.5,51.5,29.91,NE,35,0.0,0.0,93,0.00,,,0.00,VWS V14.01,2013-10-01 01:00:00,
2013-09-30 21:05:00,53.5,51.5,29.91,NE,35,0.0,0.0,93,0.00,,,0.00,VWS V14.01,2013-10-01 01:05:00,
2013-09-30 21:10:00,53.3,51.6,29.91,NE,35,0.0,0.0,94,0.00,,,0.00,VWS V14.01,2013-10-01 01:10:00,
2013-09-30 21:15:00,53.2,51.5,29.90,NE,35,0.0,0.0,94,0.00,,,0.00,VWS V14.01,2013-10-01 01:15:00,
2013-09-30 21:20:00,53.0,51.3,29.90,NE,35,0.0,0.0,94,0.00,,,0.00,VWS V14.01,2013-10-01 01:20:00,
2013-09-30 21:25:00,52.9,51.2,29.90,NE,35,0.0,0.0,94,0.00,,,0.00,VWS V14.01,2013-10-01 01:25:00,
2013-09-30 21:30:00,52.8,51.1,29.90,NE,35,0.0,0.0,94,0.00,,,0.00,VWS V14.01,2013-10-01 01:30:00,
2013-09-30 21:35:00,52.8,51.1,29.90,NE,35,0.0,0.0,94,0.00,,,0.00,VWS V14.01,2013-10-01 01:35:00,
2013-09-30 21:40:00,52.7,51.0,29.90,NE,35,0.0,0.0,94,0.00,,,0.00,VWS V14.01,2013-10-01 01:40:00,
2013-09-30 21:45:00,52.6,50.9,29.90,NE,35,0.0,0.0,94,0.00,,,0.00,VWS V14.01,2013-10-01 01:45:00,
2013-09-30 21:50:00,52.5,51.1,29.91,NE,35,0.0,0.0,95,0.00,,,0.00,VWS V14.01,2013-10-01 01:50:00,
2013-09-30 21:55:00,52.4,51.0,29.91,NE,35,0.0,0.0,95,0.00,,,0.00,VWS V14.01,2013-10-01 01:55:00,
2013-09-30 22:00:00,52.4,51.0,29.91,NE,35,0.0,0.0,95,0.00,,,0.00,VWS V14.01,2013-10-01 02:00:00,
2013-09-30 22:05:00,52.4,51.0,29.91,NE,35,0.0,0.0,95,0.00,,,0.00,VWS V14.01,2013-10-01 02:05:00,
2013-09-30 22:10:00,52.3,50.9,29.91,NE,35,0.0,0.0,95,0.00,,,0.00,VWS V14.01,2013-10-01 02:10:00,
2013-09-30 22:15:00,52.1,50.7,29.91,NE,35,0.0,0.0,95,0.00,,,0.00,VWS V14.01,2013-10-01 02:15:00,
2013-09-30 22:20:00,52.0,50.6,29.91,NE,35,0.0,0.0,95,0.00,,,0.00,VWS V14.01,2013-10-01 02:20:00,
2013-09-30 22:25:00,51.9,50.5,29.90,NE,35,0.0,0.0,95,0.00,,,0.00,VWS V14.01,2013-10-01 02:25:00,
2013-09-30 22:30:00,51.9,50.5,29.90,NE,35,0.0,0.0,95,0.00,,,0.00,VWS V14.01,2013-10-01 02:30:00,
2013-09-30 22:35:00,51.7,50.3,29.90,NE,35,0.0,0.0,95,0.00,,,0.00,VWS V14.01,2013-10-01 02:35:00,
2013-09-30 22:40:00,51.7,50.3,29.90,NE,35,0.0,0.0,95,0.00,,,0.00,VWS V14.01,2013-10-01 02:40:00,
2013-09-30 22:45:00,51.6,50.2,29.91,NE,35,0.0,0.0,95,0.00,,,0.00,VWS V14.01,2013-10-01 02:45:00,
2013-09-30 22:50:00,51.5,50.1,29.91,NE,35,0.0,0.0,95,0.00,,,0.00,VWS V14.01,2013-10-01 02:50:00,
2013-09-30 22:55:00,51.4,50.3,29.90,NE,35,0.0,0.0,96,0.00,,,0.00,VWS V14.01,2013-10-01 02:55:00,
2013-09-30 23:00:00,51.2,49.8,29.91,NE,35,0.0,0.0,95,0.00,,,0.00,VWS V14.01,2013-10-01 03:00:00,
2013-09-30 23:05:00,51.1,49.7,29.91,NE,35,0.0,0.0,95,0.00,,,0.00,VWS V14.01,2013-10-01 03:05:00,
2013-09-30 23:10:00,51.0,49.9,29.91,NE,35,0.0,0.0,96,0.00,,,0.00,VWS V14.01,2013-10-01 03:10:00,
2013-09-30 23:15:00,50.9,49.8,29.90,NE,35,0.0,0.0,96,0.00,,,0.00,VWS V14.01,2013-10-01 03:15:00,
2013-09-30 23:20:00,50.8,49.7,29.90,NE,35,0.0,0.0,96,0.00,,,0.00,VWS V14.01,2013-10-01 03:20:00,
2013-09-30 23:25:00,50.8,49.7,29.90,NE,35,0.0,0.0,96,0.00,,,0.00,VWS V14.01,2013-10-01 03:25:00,
2013-09-30 23:30:00,50.8,49.7,29.89,NE,35,0.0,1.0,96,0.00,,,0.00,VWS V14.01,2013-10-01 03:30:00,
2013-09-30 23:35:00,50.8,49.7,29.90,NE,35,0.0,1.0,96,0.00,,,0.00,VWS V14.01,2013-10-01 03:35:00,
2013-09-30 23:40:00,50.8,49.7,29.89,NE,35,0.0,1.0,96,0.00,,,0.00,VWS V14.01,2013-10-01 03:40:00,
2013-09-30 23:45:00,50.7,49.6,29.89,NE,35,0.0,1.0,96,0.00,,,0.00,VWS V14.01,2013-10-01 03:45:00,
2013-09-30 23:50:00,50.7,49.6,29.90,NE,35,0.0,1.0,96,0.00,,,0.00,VWS V14.01,2013-10-01 03:50:00,
2013-09-30 23:55:00,50.6,49.5,29.90,NE,35,0.0,1.0,96,0.00,,,0.00,VWS V14.01,2013-10-01 03:55:00,